Terminal Aerodrome Forecast
Issued by NWS Austin/San Antonio, TX

Home | Current Version | Previous Version | Text Only | Print | Product List | Glossary On
Versions: 1 2 3 4 5 6 7 8 9 10 11 12 13 14
000
FTUS44 KEWX 031033 AAA
TAFAUS
TAF AMD
KAUS 031033Z 0311/0412 19005KT 4SM BR SKC
     FM031400 16011KT P6SM BKN040
     FM032000 16005KT P6SM SCT050=

USA.gov is the U.S. government's official web portal to all federal, state and local government web resources and services.